createdAt,value
2023-04-03T00:00:54.649Z,3.50
2023-04-03T00:05:56.621Z,3.40
2023-04-03T00:10:58.624Z,3.50
2023-04-03T00:16:00.684Z,3.40
2023-04-03T00:21:02.376Z,3.40
2023-04-03T00:26:04.114Z,3.40
2023-04-03T00:31:05.877Z,3.30
2023-04-03T00:36:10.427Z,3.10
2023-04-03T00:41:12.582Z,3.10
2023-04-03T00:46:14.426Z,2.90
2023-04-03T00:51:23.924Z,2.90
2023-04-03T00:56:27.904Z,2.70
2023-04-03T01:01:31.752Z,2.70
2023-04-03T01:06:37.719Z,2.60
2023-04-03T01:11:39.422Z,2.50
2023-04-03T01:16:41.227Z,2.50
2023-04-03T01:22:10.024Z,2.40
2023-04-03T01:27:13.200Z,2.20
2023-04-03T01:32:14.991Z,2.20
2023-04-03T01:37:16.685Z,2.10
2023-04-03T01:42:18.377Z,2.10
2023-04-03T01:47:20.612Z,2.00
2023-04-03T01:52:22.418Z,2.00
2023-04-03T01:57:24.114Z,2.00
2023-04-03T02:02:26.039Z,2.00
2023-04-03T02:07:28.202Z,2.10
2023-04-03T02:12:29.876Z,2.10
2023-04-03T02:17:31.712Z,2.10
2023-04-03T02:22:34.978Z,2.00
2023-04-03T02:27:37.171Z,2.00
2023-04-03T02:32:38.953Z,1.90
2023-04-03T02:37:41.526Z,1.90
2023-04-03T02:42:43.268Z,1.80
2023-04-03T02:47:44.994Z,1.70
2023-04-03T02:52:47.072Z,1.60
2023-04-03T02:57:48.743Z,1.40
2023-04-03T03:02:50.712Z,1.30
2023-04-03T03:07:52.438Z,1.20
2023-04-03T03:12:54.218Z,1.20
2023-04-03T03:17:56.066Z,1.10
2023-04-03T03:23:21.023Z,1.00
2023-04-03T03:28:22.790Z,0.90
2023-04-03T03:33:24.659Z,0.90
2023-04-03T03:38:26.529Z,0.90
2023-04-03T03:43:28.682Z,0.80
2023-04-03T03:48:30.497Z,0.80
2023-04-03T03:53:32.182Z,0.70
2023-04-03T03:58:34.090Z,0.70
2023-04-03T04:03:35.887Z,0.60
2023-04-03T04:08:37.693Z,0.60
2023-04-03T04:13:39.471Z,0.60
2023-04-03T04:18:41.178Z,0.50
2023-04-03T04:23:42.978Z,0.50
2023-04-03T04:28:44.712Z,0.50
2023-04-03T04:33:46.515Z,0.50
2023-04-03T04:38:48.279Z,0.50
2023-04-03T04:43:51.464Z,0.50
2023-04-03T04:48:53.437Z,0.50
2023-04-03T04:53:56.158Z,0.50
2023-04-03T04:58:57.973Z,0.50
2023-04-03T05:03:59.682Z,0.60
2023-04-03T05:09:01.578Z,0.50
2023-04-03T05:14:05.658Z,0.40
2023-04-03T05:19:07.472Z,0.40
2023-04-03T05:24:10.521Z,0.40
2023-04-03T05:29:12.465Z,0.50
2023-04-03T05:34:14.297Z,0.50
2023-04-03T05:39:16.138Z,0.50
2023-04-03T05:44:17.932Z,0.60
2023-04-03T05:49:19.803Z,0.70
2023-04-03T05:54:27.311Z,0.70
2023-04-03T05:59:29.501Z,0.70
2023-04-03T06:04:32.304Z,0.80
2023-04-03T06:09:34.904Z,0.90
2023-04-03T06:14:36.963Z,1.00
2023-04-03T06:19:39.047Z,1.00
2023-04-03T06:24:41.245Z,1.10
2023-04-03T06:29:43.039Z,1.20
2023-04-03T06:34:44.789Z,1.30
2023-04-03T06:39:46.570Z,1.40
2023-04-03T06:44:48.787Z,1.50
2023-04-03T06:49:50.629Z,1.50
2023-04-03T06:54:57.944Z,1.70
2023-04-03T06:59:59.694Z,1.80
2023-04-03T07:05:01.636Z,1.90
2023-04-03T07:10:03.777Z,2.00
2023-04-03T07:15:07.217Z,2.10
2023-04-03T07:20:09.479Z,2.30
2023-04-03T07:25:11.870Z,2.40
2023-04-03T07:30:15.042Z,2.30
2023-04-03T07:35:17.681Z,2.40
2023-04-03T07:40:20.867Z,2.70
2023-04-03T07:45:23.766Z,2.80
2023-04-03T07:50:26.193Z,2.90
2023-04-03T07:55:38.245Z,2.80
2023-04-03T08:00:40.516Z,3.30
2023-04-03T08:05:43.180Z,3.50
2023-04-03T08:10:48.910Z,3.90
2023-04-03T08:15:51.847Z,4.00
2023-04-03T08:20:53.558Z,4.20
2023-04-03T08:25:55.271Z,3.80
2023-04-03T08:30:57.113Z,4.30
2023-04-03T08:35:58.897Z,4.10
2023-04-03T08:41:14.436Z,4.20
2023-04-03T08:46:20.091Z,4.40
2023-04-03T08:51:23.273Z,4.00
2023-04-03T08:56:25.645Z,3.60
2023-04-03T09:01:34.817Z,3.70
2023-04-03T09:06:39.331Z,3.60
2023-04-03T09:12:10.411Z,3.70
2023-04-03T09:17:33.622Z,3.80
2023-04-03T09:22:46.203Z,4.10
2023-04-03T09:27:54.338Z,4.50
2023-04-03T09:32:57.858Z,4.60
2023-04-03T09:38:10.444Z,4.80
2023-04-03T09:43:18.397Z,4.40
2023-04-03T09:48:26.393Z,4.80
2023-04-03T09:53:33.670Z,5.20
2023-04-03T09:58:49.779Z,5.40
2023-04-03T10:04:13.721Z,5.10
2023-04-03T10:09:22.626Z,5.50
2023-04-03T10:14:24.438Z,5.00
2023-04-03T10:19:42.356Z,5.20
2023-04-03T10:24:43.983Z,5.20
2023-04-03T10:29:45.652Z,4.80
2023-04-03T10:34:58.534Z,5.10
2023-04-03T10:40:23.382Z,5.40
2023-04-03T10:45:47.025Z,6.10
2023-04-03T10:51:23.336Z,6.10
2023-04-03T10:56:41.539Z,6.10
2023-04-03T11:01:47.815Z,5.90
2023-04-03T11:07:15.927Z,6.00
2023-04-03T11:12:22.701Z,5.90
2023-04-03T11:17:59.248Z,6.40
2023-04-03T11:23:07.476Z,6.70
2023-04-03T11:28:14.844Z,5.70
2023-04-03T11:33:35.056Z,6.40
2023-04-03T11:38:42.894Z,6.50
2023-04-03T11:44:04.852Z,7.10
2023-04-03T11:49:26.521Z,6.30
2023-04-03T11:54:44.369Z,6.40
2023-04-03T11:59:47.301Z,7.40
2023-04-03T12:05:25.855Z,6.90
2023-04-03T12:10:32.391Z,6.30
2023-04-03T12:15:37.868Z,6.50
2023-04-03T12:20:59.597Z,7.10
2023-04-03T12:26:06.042Z,6.90
2023-04-03T12:31:11.023Z,6.90
2023-04-03T12:36:23.576Z,6.70
2023-04-03T12:41:59.309Z,6.40
2023-04-03T12:47:03.123Z,6.80
2023-04-03T12:52:34.296Z,6.40
2023-04-03T12:57:37.729Z,6.70
2023-04-03T13:02:39.984Z,7.00
2023-04-03T13:07:44.641Z,6.80
2023-04-03T13:12:50.276Z,7.20
2023-04-03T13:17:54.077Z,6.70
2023-04-03T13:23:09.498Z,6.90
2023-04-03T13:28:15.913Z,6.90
2023-04-03T13:33:25.173Z,6.80
2023-04-03T13:38:32.594Z,6.90
2023-04-03T13:43:37.698Z,6.40
2023-04-03T13:48:47.299Z,6.90
2023-04-03T13:53:51.711Z,7.00
2023-04-03T13:58:56.724Z,6.70
2023-04-03T14:04:01.968Z,6.60
2023-04-03T14:09:04.207Z,6.40
2023-04-03T14:14:19.248Z,6.10
2023-04-03T14:19:23.282Z,6.40
2023-04-03T14:24:25.487Z,6.00
2023-04-03T14:29:27.272Z,6.50
2023-04-03T14:34:29.859Z,6.30
2023-04-03T14:39:31.781Z,6.30
2023-04-03T14:44:33.700Z,6.20
2023-04-03T14:49:35.606Z,6.20
2023-04-03T14:54:37.406Z,6.50
2023-04-03T14:59:39.212Z,6.30
2023-04-03T15:04:41.162Z,6.10
2023-04-03T15:09:43.166Z,6.20
2023-04-03T15:14:51.823Z,6.10
2023-04-03T15:19:59.915Z,6.20
2023-04-03T15:25:01.649Z,6.20
2023-04-03T15:30:05.291Z,6.10
2023-04-03T15:35:07.521Z,5.90
2023-04-03T15:40:10.384Z,6.10
2023-04-03T15:45:12.277Z,6.00
2023-04-03T15:50:14.134Z,5.70
2023-04-03T15:55:16.057Z,5.70
2023-04-03T16:00:18.402Z,5.90
2023-04-03T16:05:20.714Z,5.70
2023-04-03T16:10:22.756Z,5.80
2023-04-03T16:15:25.763Z,5.70
2023-04-03T16:20:28.281Z,5.60
2023-04-03T16:25:31.901Z,5.60
2023-04-03T16:30:34.404Z,5.60
2023-04-03T16:35:36.462Z,5.60
2023-04-03T16:40:38.424Z,5.70
2023-04-03T16:45:40.581Z,5.70
2023-04-03T16:50:48.901Z,5.60
2023-04-03T16:55:51.454Z,5.60
2023-04-03T17:00:54.543Z,5.70
2023-04-03T17:05:56.425Z,5.50
2023-04-03T17:10:58.203Z,5.40
2023-04-03T17:16:01.098Z,5.40
2023-04-03T17:21:03.823Z,5.30
2023-04-03T17:26:06.119Z,5.40
2023-04-03T17:31:08.584Z,5.40
2023-04-03T17:36:10.713Z,5.40
2023-04-03T17:41:12.514Z,5.30
2023-04-03T17:46:16.682Z,5.20
2023-04-03T17:51:21.694Z,5.20
2023-04-03T17:56:27.083Z,5.20
2023-04-03T18:01:35.764Z,5.20
2023-04-03T18:06:42.810Z,5.20
2023-04-03T18:11:46.151Z,5.20
2023-04-03T18:16:47.908Z,5.10
2023-04-03T18:21:50.737Z,5.00
2023-04-03T18:26:58.496Z,4.90
2023-04-03T18:32:04.959Z,5.00
2023-04-03T18:37:21.467Z,4.90
2023-04-03T18:42:25.927Z,4.90
2023-04-03T18:47:30.933Z,4.90
2023-04-03T18:52:32.858Z,4.90
2023-04-03T18:57:34.708Z,4.90
2023-04-03T19:02:37.258Z,4.90
2023-04-03T19:07:39.315Z,4.90
2023-04-03T19:12:41.095Z,4.80
2023-04-03T19:17:42.887Z,4.70
2023-04-03T19:22:44.859Z,4.70
2023-04-03T19:27:47.233Z,4.70
2023-04-03T19:32:48.981Z,4.70
2023-04-03T19:37:51.329Z,4.70
2023-04-03T19:42:53.126Z,4.70
2023-04-03T19:47:55.094Z,4.70
2023-04-03T19:52:57.323Z,4.70
2023-04-03T19:58:00.807Z,4.60
2023-04-03T20:03:03.102Z,4.70
2023-04-03T20:08:04.954Z,4.70
2023-04-03T20:13:10.776Z,4.70
2023-04-03T20:18:18.220Z,4.60
2023-04-03T20:23:20.135Z,4.60
2023-04-03T20:28:23.069Z,4.60
2023-04-03T20:33:26.384Z,4.50
2023-04-03T20:38:28.165Z,4.40
2023-04-03T20:43:30.099Z,4.40
2023-04-03T20:48:32.323Z,4.40
2023-04-03T20:53:34.173Z,4.50
2023-04-03T20:58:38.730Z,4.40
2023-04-03T21:03:40.575Z,4.50
2023-04-03T21:09:19.752Z,4.50
2023-04-03T21:14:59.002Z,4.50
2023-04-03T21:20:00.970Z,4.50
2023-04-03T21:25:02.809Z,4.40
2023-04-03T21:30:05.371Z,4.30
2023-04-03T21:35:07.555Z,4.30
2023-04-03T21:40:11.078Z,4.30
2023-04-03T21:45:15.978Z,4.30
2023-04-03T21:50:19.274Z,4.20
2023-04-03T21:55:21.051Z,4.30
2023-04-03T22:00:24.094Z,4.30
2023-04-03T22:05:26.382Z,4.20
2023-04-03T22:10:28.330Z,4.20
2023-04-03T22:15:30.147Z,4.00
2023-04-03T22:20:32.475Z,3.90
2023-04-03T22:25:34.244Z,3.90
2023-04-03T22:30:36.426Z,4.00
2023-04-03T22:35:52.189Z,4.00
2023-04-03T22:41:02.199Z,3.90
2023-04-03T22:46:06.427Z,3.90
2023-04-03T22:51:08.570Z,4.00
2023-04-03T22:56:13.874Z,3.90
2023-04-03T23:01:16.133Z,3.90
2023-04-03T23:06:17.944Z,3.80
2023-04-03T23:11:19.664Z,3.80
2023-04-03T23:16:21.477Z,3.80
2023-04-03T23:21:23.228Z,3.80
2023-04-03T23:26:25.533Z,3.80
2023-04-03T23:31:27.381Z,3.80
2023-04-03T23:36:29.180Z,3.70
2023-04-03T23:41:30.998Z,3.70
2023-04-03T23:46:32.967Z,3.70
2023-04-03T23:51:34.900Z,3.80
2023-04-03T23:56:36.652Z,3.80
